Time;durP1;ratioP1;P1;durP2;ratioP2;P2;SDS_P1;SDS_P2;PMS_P1;PMS_P2;Temp;Humidity;BMP_temperature;BMP_pressure;BME280_temperature;BME280_humidity;BME280_pressure;Samples;Min_cycle;Max_cycle;Signal;HPM_P1;HPM_P2
2023/12/10 00:00:57;;;;;;;0.70;0.70;;;9.50;99.90;;;;;;5051774;28;20043;-85
2023/12/10 00:03:23;;;;;;;0.10;0.10;;;9.40;99.90;;;;;;5051418;28;20028;-84
2023/12/10 00:05:49;;;;;;;0.10;0.10;;;9.40;99.90;;;;;;5049591;28;21110;-87
2023/12/10 00:08:15;;;;;;;0.07;0.07;;;9.40;99.90;;;;;;5054519;28;20048;-87
2023/12/10 00:10:40;;;;;;;0.10;0.10;;;9.40;99.90;;;;;;5052092;28;20031;-86
2023/12/10 00:13:06;;;;;;;0.10;0.10;;;9.40;99.90;;;;;;5069534;28;20554;-85
2023/12/10 00:15:32;;;;;;;0.83;0.83;;;9.40;99.90;;;;;;5052999;28;20029;-86
2023/12/10 00:17:57;;;;;;;0.20;0.20;;;9.40;99.90;;;;;;5069737;28;20033;-84
2023/12/10 00:20:25;;;;;;;0.10;0.10;;;9.50;99.90;;;;;;5045732;28;20121;-84
2023/12/10 00:22:51;;;;;;;0.10;0.10;;;9.60;99.90;;;;;;5062181;28;20028;-84
2023/12/10 00:25:16;;;;;;;0.30;0.30;;;9.50;99.90;;;;;;5048062;28;20055;-85
2023/12/10 00:27:42;;;;;;;8.43;1.17;;;9.50;99.90;;;;;;5051636;28;20049;-85
2023/12/10 00:30:08;;;;;;;0.00;0.00;;;9.50;99.90;;;;;;5068155;28;20044;-85
2023/12/10 00:32:34;;;;;;;0.32;0.32;;;9.30;99.90;;;;;;5068646;28;20108;-85
2023/12/10 00:34:59;;;;;;;0.10;0.10;;;9.20;99.90;;;;;;5050937;28;20131;-86
2023/12/10 00:37:26;;;;;;;0.03;0.03;;;9.20;99.90;;;;;;5068634;28;20063;-85
2023/12/10 00:39:51;;;;;;;0.20;0.20;;;9.30;99.90;;;;;;5050353;28;20029;-85
2023/12/10 00:42:18;;;;;;;0.10;0.10;;;9.30;99.90;;;;;;5048999;28;20402;-85
2023/12/10 00:44:44;;;;;;;0.00;0.00;;;9.40;99.90;;;;;;5068478;28;20080;-85
2023/12/10 00:47:10;;;;;;;1.85;0.55;;;9.40;99.90;;;;;;5068967;28;20455;-85
2023/12/10 00:49:36;;;;;;;0.10;0.10;;;9.50;99.90;;;;;;5050993;28;20052;-85
2023/12/10 00:52:02;;;;;;;0.00;0.00;;;9.50;99.90;;;;;;5050277;28;20454;-85
2023/12/10 00:54:30;;;;;;;0.10;0.10;;;9.50;99.90;;;;;;5051114;28;20030;-84
2023/12/10 00:56:55;;;;;;;1.00;0.90;;;9.40;99.90;;;;;;5052386;28;20275;-85
2023/12/10 00:59:21;;;;;;;33.00;3.13;;;9.30;99.90;;;;;;5051511;28;20051;-85
2023/12/10 01:01:47;;;;;;;0.10;0.10;;;9.20;99.90;;;;;;5066350;28;20044;-84
2023/12/10 01:04:12;;;;;;;0.10;0.10;;;9.10;99.90;;;;;;5068477;28;20039;-84
2023/12/10 01:06:38;;;;;;;0.07;0.07;;;9.10;99.90;;;;;;5065780;28;20024;-88
2023/12/10 01:09:04;;;;;;;5.30;0.70;;;9.10;99.90;;;;;;5056455;28;20081;-87
2023/12/10 01:11:30;;;;;;;0.00;0.00;;;9.10;99.90;;;;;;5055025;28;20040;-88
2023/12/10 01:13:57;;;;;;;44.10;1.50;;;9.10;99.90;;;;;;5068650;28;20731;-86
2023/12/10 01:16:22;;;;;;;0.10;0.10;;;9.10;99.90;;;;;;5054828;28;20032;-87
2023/12/10 01:18:48;;;;;;;0.10;0.10;;;9.10;99.90;;;;;;5068693;28;20578;-86
2023/12/10 01:21:13;;;;;;;0.07;0.07;;;9.10;99.90;;;;;;5068170;28;20032;-87
2023/12/10 01:23:39;;;;;;;0.10;0.10;;;9.10;99.90;;;;;;5045290;28;20032;-86
2023/12/10 01:26:07;;;;;;;0.00;0.00;;;9.10;99.90;;;;;;5063520;28;20036;-87
2023/12/10 01:28:33;;;;;;;0.75;0.52;;;9.10;99.90;;;;;;5044797;28;20041;-84
2023/12/10 01:30:59;;;;;;;7.25;1.75;;;9.10;99.90;;;;;;5047398;28;20052;-84
2023/12/10 01:33:25;;;;;;;0.00;0.00;;;9.10;99.90;;;;;;5067925;28;20029;-84
2023/12/10 01:35:51;;;;;;;0.10;0.10;;;9.10;99.90;;;;;;5049424;28;20030;-84
2023/12/10 01:38:17;;;;;;;0.10;0.10;;;9.10;99.90;;;;;;5062103;28;20056;-87
2023/12/10 01:40:42;;;;;;;3.88;2.53;;;9.20;99.90;;;;;;5048987;28;20036;-88
2023/12/10 01:43:11;;;;;;;0.10;0.10;;;9.10;99.90;;;;;;5067815;28;20028;-87
2023/12/10 01:45:37;;;;;;;0.10;0.10;;;9.20;99.90;;;;;;5070627;28;20031;-88
2023/12/10 01:48:04;;;;;;;0.10;0.10;;;9.20;99.90;;;;;;5049539;28;20032;-88
2023/12/10 01:50:35;;;;;;;0.00;0.00;;;9.20;99.90;;;;;;5067451;28;20054;-87
2023/12/10 01:53:02;;;;;;;0.10;0.10;;;9.10;99.90;;;;;;5067447;28;20028;-87
2023/12/10 01:55:29;;;;;;;0.10;0.10;;;9.10;99.90;;;;;;5067214;28;20847;-87
2023/12/10 01:57:54;;;;;;;1.15;1.08;;;9.10;99.90;;;;;;5049926;28;20033;-86
2023/12/10 02:00:21;;;;;;;0.00;0.00;;;9.30;99.90;;;;;;5067395;28;20029;-86
2023/12/10 02:02:47;;;;;;;0.57;0.50;;;9.40;99.90;;;;;;5052890;28;20024;-86
2023/12/10 02:05:13;;;;;;;0.10;0.10;;;9.50;99.90;;;;;;5067742;28;20047;-86
2023/12/10 02:07:42;;;;;;;0.10;0.10;;;9.60;99.90;;;;;;5067979;28;20032;-83
2023/12/10 02:10:09;;;;;;;0.10;0.10;;;9.60;99.90;;;;;;5067404;28;20123;-84
2023/12/10 02:12:35;;;;;;;1.98;1.88;;;9.70;99.90;;;;;;5067155;28;20025;-83
2023/12/10 02:15:18;;;;;;;3.13;2.00;;;9.70;99.90;;;;;;5048863;28;20029;-87
2023/12/10 02:17:45;;;;;;;0.10;0.10;;;9.70;99.90;;;;;;5068394;28;20593;-84
2023/12/10 02:20:14;;;;;;;0.10;0.10;;;9.70;99.90;;;;;;5049995;28;20032;-82
2023/12/10 02:22:54;;;;;;;0.05;0.05;;;9.70;99.90;;;;;;5068244;28;20028;-83
2023/12/10 02:25:33;;;;;;;0.10;0.10;;;9.70;99.90;;;;;;5068162;28;20578;-81
2023/12/10 02:28:00;;;;;;;0.10;0.10;;;9.70;99.90;;;;;;5063810;28;20036;-80
2023/12/10 02:30:26;;;;;;;0.10;0.10;;;9.70;99.90;;;;;;5066763;28;20123;-82
2023/12/10 02:32:52;;;;;;;0.10;0.10;;;9.70;99.90;;;;;;5052067;28;20071;-83
2023/12/10 02:35:17;;;;;;;0.53;0.53;;;9.80;99.90;;;;;;5067358;28;20025;-83
2023/12/10 02:37:43;;;;;;;0.08;0.08;;;9.70;99.90;;;;;;5048742;28;20445;-84
2023/12/10 02:40:09;;;;;;;0.00;0.00;;;9.80;99.90;;;;;;5064860;28;20739;-86
2023/12/10 02:42:35;;;;;;;0.33;0.33;;;9.80;99.90;;;;;;5067037;28;20414;-85
2023/12/10 02:45:01;;;;;;;0.00;0.00;;;9.80;99.90;;;;;;5066681;28;20259;-85
2023/12/10 02:47:26;;;;;;;0.10;0.10;;;9.70;99.90;;;;;;5066899;28;20515;-85
2023/12/10 02:49:52;;;;;;;0.10;0.10;;;9.70;99.90;;;;;;5049902;28;20368;-85
2023/12/10 02:52:22;;;;;;;0.10;0.10;;;9.80;99.90;;;;;;5049826;28;20033;-83
2023/12/10 02:54:48;;;;;;;0.10;0.10;;;9.80;99.90;;;;;;5067143;28;20033;-82
2023/12/10 02:57:13;;;;;;;0.00;0.00;;;9.80;99.90;;;;;;5066987;28;20115;-83
2023/12/10 02:59:39;;;;;;;0.10;0.10;;;9.80;99.90;;;;;;5048915;28;20033;-82
2023/12/10 03:02:04;;;;;;;0.10;0.10;;;9.80;99.90;;;;;;5066658;28;20036;-83
2023/12/10 03:04:30;;;;;;;0.10;0.10;;;9.70;99.90;;;;;;5051712;28;20036;-84
2023/12/10 03:06:56;;;;;;;0.10;0.10;;;9.70;99.90;;;;;;5064289;28;20025;-84
2023/12/10 03:09:21;;;;;;;0.10;0.10;;;9.70;99.90;;;;;;5066073;28;20036;-86
2023/12/10 03:11:47;;;;;;;0.20;0.20;;;9.80;99.90;;;;;;5065662;28;20032;-85
2023/12/10 03:14:12;;;;;;;0.10;0.10;;;9.80;99.90;;;;;;5066428;28;20032;-85
2023/12/10 03:16:38;;;;;;;0.10;0.10;;;9.80;99.90;;;;;;5055178;28;20036;-85
2023/12/10 03:19:04;;;;;;;15.95;2.00;;;9.80;99.90;;;;;;5069739;28;20115;-85
2023/12/10 03:21:29;;;;;;;0.03;0.03;;;9.80;99.90;;;;;;5066627;28;20051;-84
2023/12/10 03:23:55;;;;;;;0.10;0.10;;;9.90;99.90;;;;;;5051310;28;20043;-84
2023/12/10 03:26:21;;;;;;;0.00;0.00;;;9.90;99.90;;;;;;5065974;28;20025;-85
2023/12/10 03:28:46;;;;;;;0.10;0.10;;;9.80;99.90;;;;;;5055049;28;20116;-88
2023/12/10 03:31:12;;;;;;;0.10;0.10;;;9.90;99.90;;;;;;5069801;28;20435;-86
2023/12/10 03:33:38;;;;;;;0.00;0.00;;;9.90;99.90;;;;;;5070277;28;20412;-86
2023/12/10 03:36:04;;;;;;;0.10;0.10;;;9.90;99.90;;;;;;5053456;28;20478;-86
2023/12/10 03:38:31;;;;;;;0.00;0.00;;;9.90;99.90;;;;;;5055607;28;20096;-86
2023/12/10 03:40:56;;;;;;;0.80;0.77;;;9.90;99.90;;;;;;5057261;28;20052;-87
2023/12/10 03:43:22;;;;;;;0.10;0.10;;;9.90;99.90;;;;;;5053316;28;20064;-86
2023/12/10 03:45:48;;;;;;;0.10;0.10;;;9.90;99.90;;;;;;5069623;28;20028;-86
2023/12/10 03:48:13;;;;;;;0.10;0.10;;;9.90;99.90;;;;;;5053267;28;20846;-87
2023/12/10 03:50:39;;;;;;;0.10;0.10;;;9.90;99.90;;;;;;5052805;28;20542;-88
2023/12/10 03:53:05;;;;;;;0.10;0.10;;;9.90;99.90;;;;;;5071086;28;20046;-87
2023/12/10 03:55:30;;;;;;;0.10;0.10;;;9.90;99.90;;;;;;5070755;28;20024;-88
2023/12/10 03:57:56;;;;;;;0.10;0.10;;;9.90;99.90;;;;;;5053405;28;20021;-87
2023/12/10 04:00:21;;;;;;;0.10;0.10;;;9.90;99.90;;;;;;5049114;28;20086;-87
2023/12/10 04:02:47;;;;;;;0.10;0.10;;;9.90;99.90;;;;;;5070219;28;20099;-86
2023/12/10 04:05:13;;;;;;;0.10;0.10;;;9.90;99.90;;;;;;5051369;28;20147;-86
2023/12/10 04:07:39;;;;;;;0.10;0.10;;;9.90;99.90;;;;;;5070524;28;20064;-87
2023/12/10 04:10:06;;;;;;;0.30;0.30;;;9.90;99.90;;;;;;5052595;28;20028;-87
2023/12/10 04:12:32;;;;;;;2.00;0.95;;;9.90;99.90;;;;;;5051035;28;20036;-85
2023/12/10 04:14:57;;;;;;;0.10;0.10;;;9.90;99.90;;;;;;5069401;28;20028;-86
2023/12/10 04:17:23;;;;;;;0.03;0.03;;;9.80;99.90;;;;;;5051813;28;20066;-88
2023/12/10 04:19:49;;;;;;;0.00;0.00;;;9.90;99.90;;;;;;5049783;28;20565;-90
2023/12/10 04:22:15;;;;;;;0.10;0.10;;;9.90;99.90;;;;;;5052957;28;20749;-88
2023/12/10 04:24:41;;;;;;;0.10;0.10;;;9.80;99.90;;;;;;5056622;28;20085;-86
2023/12/10 04:27:06;;;;;;;0.20;0.20;;;9.80;99.90;;;;;;5051884;28;20025;-86
2023/12/10 04:29:32;;;;;;;0.10;0.10;;;9.80;99.90;;;;;;5068539;28;20040;-86
2023/12/10 04:31:57;;;;;;;0.10;0.10;;;9.80;99.90;;;;;;5068393;28;20024;-87
2023/12/10 04:34:23;;;;;;;0.00;0.00;;;9.80;99.90;;;;;;5069622;28;20028;-89
2023/12/10 04:36:49;;;;;;;1.25;1.25;;;9.80;99.90;;;;;;5051470;28;20028;-87
2023/12/10 04:39:15;;;;;;;0.10;0.10;;;9.70;99.90;;;;;;5051683;28;20033;-85
2023/12/10 04:41:41;;;;;;;0.08;0.08;;;9.70;99.90;;;;;;5072198;28;20036;-85
2023/12/10 04:44:07;;;;;;;0.10;0.10;;;9.70;99.90;;;;;;5050519;28;20028;-86
2023/12/10 04:46:33;;;;;;;0.10;0.10;;;9.80;99.90;;;;;;5051567;28;20077;-87
2023/12/10 04:48:58;;;;;;;0.10;0.10;;;9.70;99.90;;;;;;5069211;28;20028;-86
2023/12/10 04:51:24;;;;;;;0.10;0.10;;;9.80;99.90;;;;;;5051676;28;20031;-86
2023/12/10 04:53:50;;;;;;;1.08;1.08;;;9.80;99.90;;;;;;5050539;28;20044;-87
2023/12/10 04:56:17;;;;;;;0.10;0.10;;;9.70;99.90;;;;;;5051537;28;20060;-88
2023/12/10 04:58:42;;;;;;;0.08;0.08;;;9.80;99.90;;;;;;5069479;28;20029;-87
2023/12/10 05:01:08;;;;;;;0.10;0.10;;;9.80;99.90;;;;;;5070012;28;20040;-84
2023/12/10 05:03:34;;;;;;;0.20;0.20;;;9.80;99.90;;;;;;5066859;28;20025;-85
2023/12/10 05:06:00;;;;;;;0.08;0.08;;;9.70;99.90;;;;;;5051534;28;20033;-85
2023/12/10 05:08:26;;;;;;;0.10;0.10;;;9.70;99.90;;;;;;5051350;28;20060;-86
2023/12/10 05:10:52;;;;;;;1.85;1.23;;;9.70;99.90;;;;;;5068329;28;20066;-85
2023/12/10 05:13:17;;;;;;;0.10;0.10;;;9.70;99.90;;;;;;5062194;28;20044;-85
2023/12/10 05:15:43;;;;;;;0.10;0.10;;;9.70;99.90;;;;;;5050539;28;20056;-84
2023/12/10 05:18:08;;;;;;;0.10;0.10;;;9.70;99.90;;;;;;5068288;28;20042;-83
2023/12/10 05:20:34;;;;;;;0.40;0.40;;;9.70;99.90;;;;;;5067903;28;20024;-83
2023/12/10 05:23:00;;;;;;;0.10;0.10;;;9.60;99.90;;;;;;5050373;28;20043;-82
2023/12/10 05:25:30;;;;;;;0.10;0.10;;;9.60;99.90;;;;;;5063687;28;20031;-80
2023/12/10 05:27:57;;;;;;;0.05;0.05;;;9.60;99.90;;;;;;5049941;28;20255;-82
2023/12/10 05:30:22;;;;;;;0.22;0.22;;;9.60;99.90;;;;;;5066581;28;20151;-83
2023/12/10 05:32:48;;;;;;;0.15;0.15;;;9.50;99.90;;;;;;5067869;28;20162;-83
2023/12/10 05:35:14;;;;;;;0.10;0.10;;;9.50;99.90;;;;;;5067848;28;20108;-84
2023/12/10 05:37:39;;;;;;;0.10;0.10;;;9.40;99.90;;;;;;5049319;28;20028;-85
2023/12/10 05:40:05;;;;;;;0.10;0.10;;;9.50;99.90;;;;;;5049920;28;20590;-84
2023/12/10 05:42:31;;;;;;;0.10;0.10;;;9.40;99.90;;;;;;5049624;28;20078;-84
2023/12/10 05:44:58;;;;;;;0.10;0.10;;;9.50;99.90;;;;;;5067962;28;20561;-86
2023/12/10 05:47:24;;;;;;;0.00;0.00;;;9.40;99.90;;;;;;5050037;28;20230;-85
2023/12/10 05:49:50;;;;;;;0.10;0.10;;;9.40;99.90;;;;;;5049532;28;20033;-83
2023/12/10 05:52:16;;;;;;;0.10;0.10;;;9.50;99.90;;;;;;5049657;28;20035;-87
2023/12/10 05:54:41;;;;;;;0.10;0.10;;;9.40;99.90;;;;;;5050026;28;20037;-87
2023/12/10 05:57:07;;;;;;;0.75;0.75;;;9.50;99.90;;;;;;5049384;28;20514;-87
2023/12/10 05:59:33;;;;;;;0.10;0.10;;;9.50;99.90;;;;;;5048943;28;20032;-85
2023/12/10 06:01:58;;;;;;;0.00;0.00;;;9.50;99.90;;;;;;5048976;28;20024;-86
2023/12/10 06:04:24;;;;;;;1.63;1.50;;;9.50;99.90;;;;;;5048258;28;20035;-85
2023/12/10 06:06:50;;;;;;;0.23;0.23;;;9.50;99.90;;;;;;5049857;28;20034;-86
2023/12/10 06:09:16;;;;;;;0.00;0.00;;;9.50;99.90;;;;;;5049886;28;20993;-84
2023/12/10 06:11:42;;;;;;;0.10;0.10;;;9.50;99.90;;;;;;5067193;28;20040;-85
2023/12/10 06:14:07;;;;;;;0.10;0.10;;;9.60;99.90;;;;;;5065200;28;20032;-86
2023/12/10 06:16:33;;;;;;;0.10;0.10;;;9.50;99.90;;;;;;5064492;28;20073;-84
2023/12/10 06:18:59;;;;;;;0.10;0.10;;;9.50;99.90;;;;;;5066782;28;20024;-85
2023/12/10 06:21:24;;;;;;;2.17;2.07;;;9.50;99.90;;;;;;5067735;28;20028;-86
2023/12/10 06:23:50;;;;;;;0.10;0.10;;;9.50;99.90;;;;;;5054991;28;20029;-88
2023/12/10 06:26:16;;;;;;;0.00;0.00;;;9.50;99.90;;;;;;5052471;28;20392;-90
2023/12/10 06:28:41;;;;;;;0.10;0.10;;;9.40;99.90;;;;;;5068573;28;20021;-88
2023/12/10 06:31:07;;;;;;;0.00;0.00;;;9.30;99.90;;;;;;5041149;28;20076;-85
2023/12/10 06:33:32;;;;;;;0.10;0.10;;;9.30;99.90;;;;;;5044544;28;20033;-85
2023/12/10 06:35:58;;;;;;;0.00;0.00;;;9.10;99.90;;;;;;5067923;28;20101;-85
2023/12/10 06:38:24;;;;;;;0.10;0.10;;;8.80;99.90;;;;;;5062038;28;20074;-84
2023/12/10 06:40:49;;;;;;;0.00;0.00;;;8.60;99.90;;;;;;5068067;28;20274;-87
2023/12/10 06:43:15;;;;;;;0.03;0.03;;;8.50;99.90;;;;;;5050204;28;20046;-87
2023/12/10 06:45:41;;;;;;;0.03;0.03;;;8.50;99.90;;;;;;5044864;28;20057;-87
2023/12/10 06:48:06;;;;;;;0.10;0.10;;;8.60;99.90;;;;;;5051637;28;20031;-85
2023/12/10 06:50:32;;;;;;;0.10;0.10;;;8.80;99.90;;;;;;5069475;28;20059;-85
2023/12/10 06:52:58;;;;;;;0.10;0.10;;;8.90;99.90;;;;;;5054894;28;20028;-86
2023/12/10 06:55:24;;;;;;;0.08;0.08;;;9.10;99.90;;;;;;5053930;28;20064;-86
2023/12/10 06:57:49;;;;;;;0.10;0.10;;;9.20;99.90;;;;;;5071459;28;20104;-86
2023/12/10 07:00:17;;;;;;;0.10;0.10;;;9.20;99.90;;;;;;5071040;28;20059;-84
2023/12/10 07:02:43;;;;;;;0.10;0.10;;;9.20;99.90;;;;;;5052983;28;20023;-85
2023/12/10 07:05:09;;;;;;;0.10;0.10;;;9.20;99.90;;;;;;5070531;28;20488;-86
2023/12/10 07:07:35;;;;;;;0.10;0.10;;;9.30;99.90;;;;;;5070996;28;20025;-84
2023/12/10 07:10:00;;;;;;;0.10;0.10;;;9.30;99.90;;;;;;5072328;28;20063;-88
2023/12/10 07:12:26;;;;;;;0.10;0.10;;;9.30;99.90;;;;;;5071818;28;20719;-88
2023/12/10 07:14:51;;;;;;;0.10;0.10;;;9.30;99.90;;;;;;5053359;28;20053;-90
2023/12/10 07:17:17;;;;;;;0.13;0.13;;;9.10;99.90;;;;;;5056439;28;20029;-92
2023/12/10 07:19:43;;;;;;;0.10;0.10;;;9.00;99.90;;;;;;5054566;28;20502;-85
2023/12/10 07:22:08;;;;;;;0.00;0.00;;;9.00;99.90;;;;;;5065229;28;20483;-86
2023/12/10 07:24:36;;;;;;;0.00;0.00;;;8.90;99.90;;;;;;5052623;28;20483;-84
2023/12/10 07:27:02;;;;;;;2.08;0.52;;;8.90;99.90;;;;;;5068276;28;20129;-88
2023/12/10 07:29:28;;;;;;;6.75;2.70;;;8.90;99.90;;;;;;5050910;28;20072;-85
2023/12/10 07:31:53;;;;;;;0.10;0.10;;;8.90;99.90;;;;;;5067370;28;20115;-82
2023/12/10 07:34:20;;;;;;;0.10;0.10;;;8.80;99.90;;;;;;5052756;28;20071;-83
2023/12/10 07:36:46;;;;;;;0.68;0.68;;;8.70;99.90;;;;;;5070498;28;20028;-83
2023/12/10 07:39:13;;;;;;;0.10;0.10;;;8.80;99.90;;;;;;5069989;28;20040;-82
2023/12/10 07:41:38;;;;;;;0.35;0.35;;;8.90;99.90;;;;;;5050008;28;20025;-85
2023/12/10 07:44:04;;;;;;;0.10;0.10;;;8.80;99.90;;;;;;5050756;28;20028;-88
2023/12/10 07:46:30;;;;;;;0.10;0.10;;;8.70;99.90;;;;;;5070489;28;20049;-88
2023/12/10 07:48:56;;;;;;;0.08;0.08;;;8.70;99.90;;;;;;5052778;28;20064;-86
2023/12/10 07:51:23;;;;;;;0.55;0.55;;;8.80;99.90;;;;;;5053464;28;20033;-85
2023/12/10 07:53:48;;;;;;;0.10;0.10;;;8.70;99.90;;;;;;5056027;28;20109;-85
2023/12/10 07:56:14;;;;;;;0.10;0.10;;;8.70;99.90;;;;;;5072773;28;20040;-84
2023/12/10 07:58:40;;;;;;;0.10;0.10;;;8.60;99.90;;;;;;5070732;28;20037;-83
2023/12/10 08:01:09;;;;;;;3.33;1.07;;;8.60;99.90;;;;;;5050702;28;20048;-86
2023/12/10 08:03:35;;;;;;;0.10;0.10;;;8.60;99.90;;;;;;5067504;28;20020;-86
2023/12/10 08:06:00;;;;;;;0.10;0.10;;;8.70;99.90;;;;;;5052189;28;20037;-83
2023/12/10 08:08:26;;;;;;;0.10;0.10;;;8.80;99.90;;;;;;5052229;28;20023;-84
2023/12/10 08:10:52;;;;;;;0.10;0.10;;;8.90;99.90;;;;;;5064740;28;20013;-84
2023/12/10 08:13:17;;;;;;;0.10;0.10;;;9.00;99.90;;;;;;5070057;28;20493;-85
2023/12/10 08:15:43;;;;;;;0.10;0.10;;;9.00;99.90;;;;;;5045006;28;20684;-84
2023/12/10 08:18:09;;;;;;;0.10;0.10;;;9.00;99.90;;;;;;5055059;28;20578;-86
2023/12/10 08:20:34;;;;;;;0.03;0.03;;;9.10;99.90;;;;;;5051616;28;20108;-88
2023/12/10 08:23:00;;;;;;;0.30;0.30;;;9.20;99.90;;;;;;5069699;28;20025;-84
2023/12/10 08:25:26;;;;;;;0.10;0.10;;;9.30;99.90;;;;;;5068771;28;20020;-87
2023/12/10 08:27:51;;;;;;;0.20;0.20;;;9.30;99.90;;;;;;5049178;28;20032;-83
2023/12/10 08:30:17;;;;;;;0.10;0.10;;;9.40;99.90;;;;;;5059349;28;20052;-84
2023/12/10 08:32:43;;;;;;;0.20;0.20;;;9.40;99.90;;;;;;5060446;28;20078;-85
2023/12/10 08:35:08;;;;;;;0.10;0.10;;;9.30;99.90;;;;;;5068844;28;20058;-89
2023/12/10 08:37:34;;;;;;;0.17;0.17;;;9.20;99.90;;;;;;5069462;28;20060;-86
2023/12/10 08:40:03;;;;;;;0.08;0.08;;;9.30;99.90;;;;;;5069015;28;20064;-90
2023/12/10 08:42:30;;;;;;;0.10;0.10;;;9.30;99.90;;;;;;5051633;28;20037;-88
2023/12/10 08:44:56;;;;;;;0.00;0.00;;;9.20;99.90;;;;;;5070227;28;20653;-86
2023/12/10 08:47:22;;;;;;;0.10;0.10;;;9.10;99.90;;;;;;5049304;28;20028;-87
2023/12/10 08:49:47;;;;;;;0.10;0.10;;;9.20;99.90;;;;;;5070561;28;20032;-84
2023/12/10 08:52:13;;;;;;;0.10;0.10;;;9.30;99.90;;;;;;5065864;28;20108;-86
2023/12/10 08:54:39;;;;;;;0.07;0.07;;;9.50;99.90;;;;;;5070935;28;20032;-85
2023/12/10 08:57:04;;;;;;;4.88;2.42;;;9.50;99.90;;;;;;5050525;28;20064;-88
2023/12/10 08:59:30;;;;;;;0.10;0.10;;;9.50;99.90;;;;;;5051865;28;20025;-88
2023/12/10 09:01:56;;;;;;;1.25;1.15;;;9.50;99.90;;;;;;5052580;28;20036;-88
2023/12/10 09:04:21;;;;;;;0.00;0.00;;;9.40;99.90;;;;;;5052118;28;20028;-90
2023/12/10 09:06:47;;;;;;;0.00;0.00;;;9.30;99.90;;;;;;5067240;28;20027;-89
2023/12/10 09:09:13;;;;;;;0.10;0.10;;;9.20;99.90;;;;;;5070756;28;20024;-91
2023/12/10 09:11:38;;;;;;;0.28;0.28;;;9.20;99.90;;;;;;5052955;28;20028;-90
2023/12/10 09:14:07;;;;;;;0.10;0.10;;;9.30;99.90;;;;;;5057304;28;20039;-88
2023/12/10 09:16:33;;;;;;;0.00;0.00;;;9.20;99.90;;;;;;5059395;28;20063;-90
2023/12/10 09:18:58;;;;;;;0.10;0.10;;;9.20;99.90;;;;;;5069892;28;20040;-88
2023/12/10 09:21:24;;;;;;;0.00;0.00;;;9.30;99.90;;;;;;5057842;28;20476;-86
2023/12/10 09:23:50;;;;;;;0.52;0.52;;;9.40;99.90;;;;;;5054635;28;20020;-86
2023/12/10 09:26:15;;;;;;;0.25;0.25;;;9.50;99.90;;;;;;5052200;28;20048;-87
2023/12/10 09:28:41;;;;;;;0.00;0.00;;;9.80;99.90;;;;;;5049581;28;20024;-86
2023/12/10 09:31:07;;;;;;;0.10;0.10;;;10.00;99.90;;;;;;5042552;28;20056;-90
2023/12/10 09:33:32;;;;;;;0.10;0.10;;;10.30;99.90;;;;;;5055441;28;20861;-89
2023/12/10 09:35:58;;;;;;;0.30;0.30;;;10.40;99.90;;;;;;5048645;28;20087;-84
2023/12/10 09:38:23;;;;;;;0.10;0.10;;;10.40;99.90;;;;;;5050733;28;20807;-84
2023/12/10 09:40:49;;;;;;;0.00;0.00;;;10.40;99.90;;;;;;5066928;28;20446;-84
2023/12/10 09:43:15;;;;;;;0.08;0.08;;;10.30;99.90;;;;;;5048784;28;20028;-86
2023/12/10 09:45:40;;;;;;;0.10;0.10;;;10.70;99.90;;;;;;5047735;28;20033;-88
2023/12/10 09:48:07;;;;;;;0.00;0.00;;;10.30;99.90;;;;;;5062632;28;20029;-87
2023/12/10 09:50:40;;;;;;;0.10;0.10;;;10.30;99.90;;;;;;5066733;28;20089;-86
2023/12/10 09:53:07;;;;;;;0.00;0.00;;;10.50;99.90;;;;;;5041444;28;20279;-90
2023/12/10 09:55:32;;;;;;;0.00;0.00;;;10.50;99.90;;;;;;5067113;28;20065;-90
2023/12/10 09:57:58;;;;;;;40.50;2.53;;;10.70;99.90;;;;;;5051689;28;20114;-90
2023/12/10 10:00:25;;;;;;;0.10;0.10;;;10.80;99.90;;;;;;5051757;28;20034;-90
2023/12/10 10:02:51;;;;;;;0.00;0.00;;;10.60;99.90;;;;;;5048155;28;20086;-90
2023/12/10 10:05:16;;;;;;;0.10;0.10;;;10.50;99.90;;;;;;5039952;28;20025;-88
2023/12/10 10:07:42;;;;;;;0.23;0.23;;;10.40;99.90;;;;;;5063222;28;20526;-91
2023/12/10 10:10:11;;;;;;;0.05;0.05;;;10.40;99.90;;;;;;5034738;28;20811;-90
2023/12/10 10:12:37;;;;;;;0.00;0.00;;;10.50;99.90;;;;;;5044509;28;20510;-90
2023/12/10 10:15:03;;;;;;;0.10;0.10;;;10.60;99.90;;;;;;5041811;28;20032;-89
2023/12/10 10:17:35;;;;;;;0.85;0.85;;;10.70;99.90;;;;;;5068546;28;20064;-89
2023/12/10 10:20:04;;;;;;;0.00;0.00;;;10.70;99.90;;;;;;5049304;28;20036;-90
2023/12/10 10:22:30;;;;;;;0.00;0.00;;;10.70;99.90;;;;;;5067950;28;20021;-89
2023/12/10 10:24:57;;;;;;;0.00;0.00;;;10.80;99.90;;;;;;5045144;28;20032;-89
2023/12/10 10:27:23;;;;;;;0.05;0.05;;;10.80;99.90;;;;;;5067971;28;20499;-90
2023/12/10 10:29:53;;;;;;;0.10;0.10;;;10.90;99.90;;;;;;5035283;28;20061;-90
2023/12/10 10:32:19;;;;;;;0.10;0.10;;;10.90;99.90;;;;;;5042435;28;20040;-89
2023/12/10 10:34:48;;;;;;;;;;;11.00;99.90;;;;;;5047443;28;20036;-89
2023/12/10 10:37:16;;;;;;;0.10;0.10;;;11.20;99.90;;;;;;5047706;28;19908;-89
2023/12/10 10:39:43;;;;;;;0.10;0.10;;;11.10;99.90;;;;;;5045592;28;20503;-91
2023/12/10 10:42:10;;;;;;;2.65;2.55;;;11.20;99.90;;;;;;5047498;28;20033;-90
2023/12/10 10:44:37;;;;;;;0.10;0.10;;;11.30;99.90;;;;;;5047959;28;20033;-90
2023/12/10 10:47:05;;;;;;;0.10;0.10;;;11.10;99.90;;;;;;5048484;28;20400;-93
2023/12/10 10:49:32;;;;;;;0.10;0.10;;;11.00;99.90;;;;;;5049582;28;20036;-91
2023/12/10 10:52:01;;;;;;;0.10;0.10;;;11.00;99.90;;;;;;5048761;28;20128;-92
2023/12/10 10:54:28;;;;;;;0.00;0.00;;;11.00;99.90;;;;;;5048715;28;20499;-91
2023/12/10 10:56:53;;;;;;;0.10;0.10;;;11.10;99.90;;;;;;5048935;28;20486;-89
2023/12/10 10:59:33;;;;;;;0.00;0.00;;;11.20;99.90;;;;;;5041051;28;20047;-88
2023/12/10 11:02:00;;;;;;;0.00;0.00;;;11.20;99.90;;;;;;5041062;28;20260;-86
2023/12/10 11:04:39;;;;;;;0.00;0.00;;;11.00;99.90;;;;;;5045511;28;20119;-83
2023/12/10 11:07:05;;;;;;;0.10;0.10;;;11.10;99.90;;;;;;5032127;28;20064;-83
2023/12/10 11:09:32;;;;;;;0.25;0.25;;;11.00;99.90;;;;;;5039396;28;20040;-85
2023/12/10 11:11:58;;;;;;;0.10;0.10;;;11.30;99.90;;;;;;5031718;28;20029;-85
2023/12/10 11:14:24;;;;;;;0.10;0.10;;;11.30;99.90;;;;;;5058773;28;20147;-88
2023/12/10 11:16:57;;;;;;;0.00;0.00;;;11.30;99.90;;;;;;5036627;28;20532;-89
2023/12/10 11:19:23;;;;;;;0.10;0.10;;;11.30;99.90;;;;;;5035296;28;20025;-88
2023/12/10 11:21:52;;;;;;;0.73;0.73;;;11.30;99.90;;;;;;5036260;28;20096;-84
2023/12/10 11:24:17;;;;;;;0.63;0.63;;;11.40;99.90;;;;;;5037398;28;20017;-84
2023/12/10 11:26:43;;;;;;;0.00;0.00;;;11.60;99.90;;;;;;5060978;28;20021;-86
2023/12/10 11:29:09;;;;;;;0.10;0.10;;;11.60;99.90;;;;;;5041173;28;20103;-86
2023/12/10 11:31:35;;;;;;;0.20;0.20;;;11.60;99.90;;;;;;5055588;28;20053;-85
2023/12/10 11:34:01;;;;;;;0.10;0.10;;;11.60;99.90;;;;;;5057769;28;20041;-86
2023/12/10 11:36:27;;;;;;;0.10;0.10;;;11.50;99.90;;;;;;5063452;28;20112;-86
2023/12/10 11:38:53;;;;;;;0.10;0.10;;;11.40;99.90;;;;;;5049275;28;20096;-86
2023/12/10 11:41:18;;;;;;;0.10;0.10;;;11.40;99.90;;;;;;5051396;28;20024;-88
2023/12/10 11:43:45;;;;;;;0.10;0.10;;;11.50;99.90;;;;;;5051172;28;20850;-87
2023/12/10 11:46:18;;;;;;;0.10;0.10;;;11.30;99.90;;;;;;5041816;28;20036;-92
2023/12/10 11:48:44;;;;;;;0.10;0.10;;;11.30;99.90;;;;;;5047410;28;20060;-82
2023/12/10 11:51:11;;;;;;;0.17;0.17;;;11.30;99.90;;;;;;5063911;28;20032;-85
2023/12/10 11:53:37;;;;;;;;;;;11.40;99.90;;;;;;5049358;28;20066;-85
2023/12/10 11:56:03;;;;;;;0.10;0.10;;;11.50;99.90;;;;;;5042671;28;19951;-85
2023/12/10 11:58:31;;;;;;;0.00;0.00;;;11.60;99.90;;;;;;5065877;28;20028;-89
2023/12/10 12:01:01;;;;;;;0.75;0.63;;;11.60;99.90;;;;;;5060258;28;20032;-86
2023/12/10 12:03:30;;;;;;;0.10;0.10;;;11.60;99.90;;;;;;5066632;28;20487;-88
2023/12/10 12:05:56;;;;;;;0.10;0.10;;;11.70;99.90;;;;;;5054578;28;20831;-90
2023/12/10 12:08:26;;;;;;;0.10;0.10;;;11.70;99.90;;;;;;5053671;28;20127;-85
2023/12/10 12:10:53;;;;;;;0.20;0.20;;;11.60;99.90;;;;;;5053099;28;20090;-87
2023/12/10 12:13:19;;;;;;;6.97;3.25;;;11.50;99.90;;;;;;5052971;28;20029;-86
2023/12/10 12:15:49;;;;;;;0.10;0.10;;;11.50;99.90;;;;;;5070129;28;20028;-90
2023/12/10 12:18:15;;;;;;;0.10;0.10;;;11.70;99.90;;;;;;5067312;28;20055;-93
2023/12/10 12:20:41;;;;;;;0.20;0.20;;;11.80;99.90;;;;;;5060065;28;20036;-86
2023/12/10 12:23:07;;;;;;;0.00;0.00;;;11.70;99.90;;;;;;5063534;28;20060;-91
2023/12/10 12:25:37;;;;;;;0.10;0.10;;;11.40;99.90;;;;;;5052382;28;20484;-87
2023/12/10 12:28:05;;;;;;;0.10;0.10;;;11.30;99.90;;;;;;5046481;28;20040;-87
2023/12/10 12:30:32;;;;;;;0.20;0.20;;;11.30;99.90;;;;;;5067028;28;20628;-85
2023/12/10 12:32:57;;;;;;;0.03;0.03;;;11.30;99.90;;;;;;5049559;28;20112;-88
2023/12/10 12:35:23;;;;;;;0.00;0.00;;;11.20;99.90;;;;;;5056430;28;20120;-88
2023/12/10 12:37:49;;;;;;;0.20;0.20;;;11.20;99.90;;;;;;5049147;28;20063;-87
2023/12/10 12:40:15;;;;;;;0.10;0.10;;;11.10;99.90;;;;;;5049607;28;20028;-83
2023/12/10 12:42:40;;;;;;;0.10;0.10;;;11.10;99.90;;;;;;5060855;28;20059;-86
2023/12/10 12:45:07;;;;;;;0.10;0.10;;;11.30;99.90;;;;;;5047551;28;20032;-87
2023/12/10 12:47:33;;;;;;;0.00;0.00;;;11.30;99.90;;;;;;5042926;28;20020;-87
2023/12/10 12:49:58;;;;;;;0.00;0.00;;;11.40;99.90;;;;;;5068617;28;20045;-89